createdAt,value
2017-07-29T00:01:49.342Z,72.40
2017-07-29T00:04:15.658Z,72.70
2017-07-29T00:06:41.995Z,72.30
2017-07-29T00:09:08.260Z,73.00
2017-07-29T00:11:34.565Z,73.00
2017-07-29T00:14:00.872Z,73.00
2017-07-29T00:16:27.090Z,73.00
2017-07-29T00:19:08.238Z,73.60
2017-07-29T00:21:34.411Z,73.80
2017-07-29T00:24:01.317Z,74.30
2017-07-29T00:26:27.536Z,73.00
2017-07-29T00:28:53.710Z,73.60
2017-07-29T00:31:19.905Z,73.60
2017-07-29T00:33:46.106Z,73.00
2017-07-29T00:36:12.258Z,73.10
2017-07-29T00:38:39.269Z,72.90
2017-07-29T00:41:05.468Z,72.90
2017-07-29T00:43:31.649Z,73.00
2017-07-29T00:45:57.838Z,73.00
2017-07-29T00:48:24.414Z,72.90
2017-07-29T00:50:50.614Z,72.90
2017-07-29T00:53:16.805Z,73.10
2017-07-29T00:55:43.343Z,73.10
2017-07-29T00:58:09.505Z,72.80
2017-07-29T01:00:35.697Z,73.50
2017-07-29T01:03:01.885Z,72.90
2017-07-29T01:05:28.430Z,72.80
2017-07-29T01:07:54.644Z,73.10
2017-07-29T01:10:20.826Z,72.70
2017-07-29T01:12:47.039Z,73.30
2017-07-29T01:15:13.236Z,73.10
2017-07-29T01:17:39.433Z,73.60
2017-07-29T01:20:06.338Z,73.50
2017-07-29T01:22:32.559Z,73.00
2017-07-29T01:24:58.707Z,73.60
2017-07-29T01:27:24.911Z,74.20
2017-07-29T01:29:51.121Z,74.10
2017-07-29T01:32:17.348Z,74.40
2017-07-29T01:34:43.493Z,73.80
2017-07-29T01:37:09.634Z,74.10
2017-07-29T01:39:35.835Z,74.60
2017-07-29T01:42:02.026Z,74.70
2017-07-29T01:44:29.015Z,75.10
2017-07-29T01:46:56.140Z,73.70
2017-07-29T01:49:22.350Z,73.20
2017-07-29T01:51:49.295Z,74.00
2017-07-29T01:54:17.002Z,72.90
2017-07-29T01:56:43.214Z,73.60
2017-07-29T01:59:09.438Z,73.20
2017-07-29T02:01:35.683Z,73.80
2017-07-29T02:04:01.915Z,73.70
2017-07-29T02:06:28.125Z,73.60
2017-07-29T02:08:54.318Z,73.60
2017-07-29T02:11:20.511Z,74.30
2017-07-29T02:13:46.708Z,74.60
2017-07-29T02:16:12.906Z,74.20
2017-07-29T02:18:39.118Z,74.70
2017-07-29T02:21:05.304Z,74.40
2017-07-29T02:23:31.474Z,73.80
2017-07-29T02:25:57.663Z,74.10
2017-07-29T02:28:23.831Z,74.30
2017-07-29T02:30:50.006Z,74.50
2017-07-29T02:33:16.546Z,74.20
2017-07-29T02:35:42.735Z,74.80
2017-07-29T02:38:08.945Z,74.30
2017-07-29T02:40:35.129Z,74.00
2017-07-29T02:43:01.334Z,73.80
2017-07-29T02:45:28.290Z,75.40
2017-07-29T02:47:55.246Z,76.30
2017-07-29T02:50:21.460Z,75.50
2017-07-29T02:52:48.410Z,76.10
2017-07-29T02:55:14.965Z,75.20
2017-07-29T02:57:41.144Z,75.20
2017-07-29T03:00:07.365Z,75.10
2017-07-29T03:02:33.534Z,75.50
2017-07-29T03:05:00.459Z,76.10
2017-07-29T03:07:27.345Z,76.80
2017-07-29T03:09:53.518Z,75.80
2017-07-29T03:12:19.733Z,76.30
2017-07-29T03:14:46.848Z,76.30
2017-07-29T03:17:13.027Z,76.20
2017-07-29T03:19:39.265Z,76.00
2017-07-29T03:22:05.443Z,76.10
2017-07-29T03:24:31.622Z,76.30
2017-07-29T03:26:57.780Z,75.80
2017-07-29T03:29:23.932Z,76.40
2017-07-29T03:31:50.145Z,75.80
2017-07-29T03:34:16.325Z,76.40
2017-07-29T03:36:42.531Z,75.80
2017-07-29T03:39:08.678Z,75.20
2017-07-29T03:41:34.856Z,74.90
2017-07-29T03:44:00.980Z,74.70
2017-07-29T03:46:27.530Z,74.50
2017-07-29T03:48:53.743Z,75.20
2017-07-29T03:51:20.314Z,74.50
2017-07-29T03:53:46.539Z,75.00
2017-07-29T03:56:12.694Z,75.20
2017-07-29T03:58:38.917Z,75.00
2017-07-29T04:01:05.100Z,74.80
2017-07-29T04:03:31.630Z,74.90
2017-07-29T04:05:57.872Z,75.50
2017-07-29T04:08:24.037Z,73.70
2017-07-29T04:10:50.213Z,74.50
2017-07-29T04:13:16.460Z,75.10
2017-07-29T04:15:42.675Z,74.80
2017-07-29T04:18:08.850Z,74.30
2017-07-29T04:20:35.011Z,74.00
2017-07-29T04:23:01.990Z,74.40
2017-07-29T04:25:28.204Z,74.30
2017-07-29T04:27:54.361Z,74.30
2017-07-29T04:30:20.567Z,74.40
2017-07-29T04:32:46.719Z,74.90
2017-07-29T04:35:12.890Z,74.80
2017-07-29T04:37:39.814Z,75.80
2017-07-29T04:40:05.974Z,75.40
2017-07-29T04:42:32.163Z,76.50
2017-07-29T04:44:58.339Z,76.10
2017-07-29T04:47:24.541Z,75.00
2017-07-29T04:49:50.750Z,75.50
2017-07-29T04:52:16.919Z,76.10
2017-07-29T04:54:43.145Z,75.20
2017-07-29T04:57:09.351Z,75.10
2017-07-29T04:59:36.259Z,75.50
2017-07-29T05:02:02.470Z,74.20
2017-07-29T05:04:28.703Z,76.30
2017-07-29T05:06:54.893Z,77.10
2017-07-29T05:09:21.846Z,76.50
2017-07-29T05:11:48.774Z,76.10
2017-07-29T05:14:16.087Z,75.10
2017-07-29T05:16:42.690Z,75.60
2017-07-29T05:19:08.886Z,74.20
2017-07-29T05:21:35.054Z,74.90
2017-07-29T05:24:01.222Z,75.40
2017-07-29T05:26:27.373Z,75.60
2017-07-29T05:28:53.571Z,75.60
2017-07-29T05:31:20.127Z,75.50
2017-07-29T05:33:46.286Z,75.80
2017-07-29T05:36:13.230Z,75.70
2017-07-29T05:38:40.188Z,76.20
2017-07-29T05:41:06.391Z,76.20
2017-07-29T05:43:32.561Z,76.40
2017-07-29T05:45:58.750Z,76.60
2017-07-29T05:48:25.729Z,76.40
2017-07-29T05:50:51.923Z,75.00
2017-07-29T05:53:18.885Z,75.80
2017-07-29T05:55:45.804Z,74.40
2017-07-29T05:58:12.010Z,74.60
2017-07-29T06:00:38.214Z,73.70
2017-07-29T06:03:04.395Z,74.00
2017-07-29T06:05:31.367Z,75.00
2017-07-29T06:07:57.560Z,74.30
2017-07-29T06:10:23.740Z,75.20
2017-07-29T06:12:50.005Z,73.80
2017-07-29T06:15:16.216Z,73.70
2017-07-29T06:17:42.391Z,74.00
2017-07-29T06:20:09.318Z,74.60
2017-07-29T06:22:35.481Z,73.80
2017-07-29T06:25:01.671Z,74.60
2017-07-29T06:27:27.820Z,73.70
2017-07-29T06:29:54.825Z,75.50
2017-07-29T06:32:21.021Z,72.50
2017-07-29T06:34:47.198Z,72.00
2017-07-29T06:37:13.407Z,69.80
2017-07-29T06:39:39.578Z,69.80
2017-07-29T06:42:05.799Z,70.50
2017-07-29T06:44:31.982Z,68.50
2017-07-29T06:46:58.171Z,67.10
2017-07-29T06:49:25.096Z,67.90
2017-07-29T06:51:51.998Z,67.40
2017-07-29T06:54:18.212Z,65.40
2017-07-29T06:56:44.415Z,62.60
2017-07-29T06:59:11.397Z,61.60
2017-07-29T07:01:37.579Z,59.50
2017-07-29T07:04:03.772Z,59.70
2017-07-29T07:06:29.990Z,59.60
2017-07-29T07:08:56.215Z,58.10
2017-07-29T07:11:22.403Z,57.70
2017-07-29T07:13:49.741Z,54.70
2017-07-29T07:16:15.998Z,54.80
2017-07-29T07:18:42.957Z,53.70
2017-07-29T07:21:09.132Z,53.60
2017-07-29T07:23:35.289Z,52.20
2017-07-29T07:26:02.272Z,53.00
2017-07-29T07:28:28.492Z,51.40
2017-07-29T07:30:58.552Z,52.10
2017-07-29T07:33:24.733Z,50.80
2017-07-29T07:35:50.905Z,51.40
2017-07-29T07:38:17.346Z,50.00
2017-07-29T07:40:43.538Z,50.40
2017-07-29T07:43:10.047Z,51.00
2017-07-29T07:45:36.291Z,49.10
2017-07-29T07:48:02.486Z,48.60
2017-07-29T07:50:29.488Z,48.90
2017-07-29T07:52:56.764Z,48.80
2017-07-29T07:55:23.461Z,46.50
2017-07-29T07:57:49.625Z,46.80
2017-07-29T08:00:15.875Z,47.70
2017-07-29T08:02:42.113Z,46.40
2017-07-29T08:05:08.358Z,45.40
2017-07-29T08:07:35.301Z,44.30
2017-07-29T08:10:02.225Z,45.60
2017-07-29T08:12:28.386Z,45.00
2017-07-29T08:14:54.587Z,45.20
2017-07-29T08:17:21.596Z,45.40
2017-07-29T08:19:47.798Z,45.40
2017-07-29T08:22:13.980Z,45.30
2017-07-29T08:24:40.199Z,45.10
2017-07-29T08:27:07.469Z,45.70
2017-07-29T08:29:33.672Z,46.30
2017-07-29T08:32:00.924Z,48.40
2017-07-29T08:34:27.102Z,50.00
2017-07-29T08:36:53.827Z,50.60
2017-07-29T08:39:20.401Z,51.10
2017-07-29T08:41:46.602Z,51.70
2017-07-29T08:44:13.500Z,53.10
2017-07-29T08:46:39.702Z,53.50
2017-07-29T08:49:06.254Z,51.80
2017-07-29T08:51:32.441Z,50.60
2017-07-29T08:53:59.424Z,52.20
2017-07-29T08:56:25.612Z,52.00
2017-07-29T08:58:52.548Z,51.30
2017-07-29T09:01:18.754Z,51.00
2017-07-29T09:03:44.979Z,49.30
2017-07-29T09:06:11.252Z,50.00
2017-07-29T09:08:37.466Z,50.00
2017-07-29T09:11:04.451Z,48.70
2017-07-29T09:13:30.623Z,48.60
2017-07-29T09:15:57.623Z,47.50
2017-07-29T09:18:23.843Z,47.50
2017-07-29T09:20:50.030Z,48.40
2017-07-29T09:23:16.218Z,48.50
2017-07-29T09:25:42.407Z,49.30
2017-07-29T09:28:09.583Z,48.90
2017-07-29T09:30:35.765Z,48.40
2017-07-29T09:33:01.993Z,47.20
2017-07-29T09:35:28.263Z,47.60
2017-07-29T09:37:54.837Z,48.30
2017-07-29T09:40:21.382Z,48.30
2017-07-29T09:42:47.597Z,48.90
2017-07-29T09:45:13.832Z,48.50
2017-07-29T09:47:40.051Z,47.30
2017-07-29T09:50:06.241Z,48.30
2017-07-29T09:52:33.190Z,47.50
2017-07-29T09:55:00.182Z,46.50
2017-07-29T09:57:26.388Z,45.50
2017-07-29T09:59:52.590Z,45.40
2017-07-29T10:02:19.549Z,46.30
2017-07-29T10:04:45.722Z,45.90
2017-07-29T10:07:11.913Z,44.60
2017-07-29T10:09:38.108Z,44.10
2017-07-29T10:12:04.232Z,45.20
2017-07-29T10:14:30.457Z,44.40
2017-07-29T10:16:56.707Z,44.60
2017-07-29T10:19:23.642Z,44.30
2017-07-29T10:21:51.403Z,45.00
2017-07-29T10:24:17.606Z,44.40
2017-07-29T10:26:43.765Z,44.40
2017-07-29T10:29:09.979Z,45.20
2017-07-29T10:31:36.172Z,43.80
2017-07-29T10:34:02.749Z,44.30
2017-07-29T10:36:29.774Z,45.50
2017-07-29T10:38:55.996Z,44.10
2017-07-29T10:41:22.181Z,44.20
2017-07-29T10:43:48.347Z,43.80
2017-07-29T10:46:14.546Z,43.00
2017-07-29T10:48:40.705Z,44.60
2017-07-29T10:51:06.877Z,43.40
2017-07-29T10:53:33.862Z,43.40
2017-07-29T10:56:00.067Z,43.40
2017-07-29T10:58:26.292Z,42.80
2017-07-29T11:00:54.365Z,42.90
2017-07-29T11:03:20.586Z,43.00
2017-07-29T11:05:47.642Z,42.20
2017-07-29T11:08:13.881Z,42.20
2017-07-29T11:10:40.463Z,41.30
2017-07-29T11:13:06.692Z,41.90
2017-07-29T11:15:32.899Z,42.00
2017-07-29T11:17:59.146Z,40.90
2017-07-29T11:20:25.382Z,41.80
2017-07-29T11:22:51.576Z,41.90
2017-07-29T11:25:17.800Z,41.00
2017-07-29T11:27:44.015Z,40.70
2017-07-29T11:30:10.254Z,40.30
2017-07-29T11:32:36.457Z,40.20
2017-07-29T11:35:03.395Z,41.30
2017-07-29T11:37:30.372Z,40.60
2017-07-29T11:39:56.580Z,41.30
2017-07-29T11:42:23.557Z,40.90
2017-07-29T11:44:49.736Z,42.00
2017-07-29T11:47:15.925Z,43.40
2017-07-29T11:49:42.176Z,42.60
2017-07-29T11:52:08.371Z,42.60
2017-07-29T11:54:34.538Z,42.80
2017-07-29T11:57:00.770Z,42.70
2017-07-29T11:59:26.969Z,42.70
2017-07-29T12:01:53.905Z,42.40
2017-07-29T12:04:20.087Z,43.00
2017-07-29T12:06:46.309Z,42.60
2017-07-29T12:09:12.874Z,42.00
2017-07-29T12:11:39.790Z,43.60
2017-07-29T12:14:05.982Z,42.20
2017-07-29T12:16:32.239Z,42.20
2017-07-29T12:18:58.426Z,42.10
2017-07-29T12:21:24.632Z,42.60
2017-07-29T12:23:51.601Z,43.10
2017-07-29T12:26:17.783Z,42.60
2017-07-29T12:28:44.036Z,42.50
2017-07-29T12:31:10.969Z,41.70
2017-07-29T12:33:37.923Z,41.70
2017-07-29T12:36:04.984Z,41.30
2017-07-29T12:38:31.302Z,41.50
2017-07-29T12:40:58.230Z,41.30
2017-07-29T12:43:24.427Z,42.40
2017-07-29T12:45:50.635Z,42.40
2017-07-29T12:48:16.934Z,43.40
2017-07-29T12:50:43.838Z,45.00
2017-07-29T12:53:10.080Z,46.50
2017-07-29T12:55:36.346Z,46.10
2017-07-29T12:58:02.555Z,46.70
2017-07-29T13:00:29.533Z,44.90
2017-07-29T13:02:56.624Z,45.00
2017-07-29T13:05:23.666Z,42.80
2017-07-29T13:07:49.918Z,43.10
2017-07-29T13:10:16.631Z,43.30
2017-07-29T13:12:42.861Z,44.20
2017-07-29T13:15:09.083Z,44.40
2017-07-29T13:17:35.427Z,45.00
2017-07-29T13:20:01.762Z,43.60
2017-07-29T13:22:27.975Z,44.40
2017-07-29T13:24:54.163Z,44.40
2017-07-29T13:27:21.151Z,45.40
2017-07-29T13:29:47.332Z,45.10
2017-07-29T13:32:14.358Z,46.30
2017-07-29T13:34:40.586Z,44.30
2017-07-29T13:37:07.897Z,43.10
2017-07-29T13:39:35.944Z,42.80
2017-07-29T13:42:02.984Z,42.40
2017-07-29T13:44:30.052Z,42.40
2017-07-29T13:46:56.264Z,42.30
2017-07-29T13:49:23.298Z,41.00
2017-07-29T13:51:50.243Z,40.50
2017-07-29T13:54:17.308Z,40.30
2017-07-29T13:56:44.239Z,40.70
2017-07-29T13:59:21.032Z,41.30
2017-07-29T14:01:48.777Z,41.40
2017-07-29T14:04:15.752Z,42.90
2017-07-29T14:06:41.948Z,43.60
2017-07-29T14:09:08.902Z,43.50
2017-07-29T14:11:35.852Z,44.00
2017-07-29T14:14:02.785Z,45.00
2017-07-29T14:16:29.014Z,44.90
2017-07-29T14:18:55.304Z,45.60
2017-07-29T14:21:21.553Z,47.10
2017-07-29T14:23:47.812Z,46.30
2017-07-29T14:26:14.755Z,47.60
2017-07-29T14:28:40.930Z,47.10
2017-07-29T14:31:07.111Z,47.30
2017-07-29T14:33:33.286Z,47.60
2017-07-29T14:35:59.493Z,47.70
2017-07-29T14:38:25.691Z,47.90
2017-07-29T14:40:51.967Z,48.50
2017-07-29T14:43:18.158Z,49.20
2017-07-29T14:45:45.137Z,50.00
2017-07-29T14:48:29.834Z,49.80
2017-07-29T14:50:56.021Z,49.50
2017-07-29T14:53:22.216Z,50.30
2017-07-29T14:55:48.426Z,50.50
2017-07-29T14:58:14.645Z,50.00
2017-07-29T15:00:40.840Z,50.00
2017-07-29T15:03:07.091Z,50.40
2017-07-29T15:05:33.306Z,50.80
2017-07-29T15:07:59.559Z,50.60
2017-07-29T15:10:25.741Z,51.40
2017-07-29T15:12:52.732Z,51.30
2017-07-29T15:15:18.927Z,51.20
2017-07-29T15:17:45.165Z,51.10
2017-07-29T15:20:11.387Z,51.80
2017-07-29T15:22:37.609Z,51.00
2017-07-29T15:25:03.994Z,51.40
2017-07-29T15:27:30.411Z,50.40
2017-07-29T15:29:56.769Z,51.00
2017-07-29T15:32:22.962Z,51.10
2017-07-29T15:34:49.135Z,51.20
2017-07-29T15:37:16.081Z,51.00
2017-07-29T15:39:43.015Z,51.40
2017-07-29T15:42:09.241Z,51.40
2017-07-29T15:44:35.440Z,51.90
2017-07-29T15:47:01.661Z,51.50
2017-07-29T15:49:27.817Z,51.80
2017-07-29T15:51:54.018Z,51.70
2017-07-29T15:54:20.274Z,52.90
2017-07-29T15:56:46.884Z,51.90
2017-07-29T15:59:13.879Z,51.80
2017-07-29T16:01:40.074Z,52.10
2017-07-29T16:04:06.378Z,51.70
2017-07-29T16:06:32.569Z,51.10
2017-07-29T16:08:58.777Z,51.60
2017-07-29T16:11:25.001Z,52.40
2017-07-29T16:13:51.256Z,52.20
2017-07-29T16:16:17.453Z,53.40
2017-07-29T16:18:43.713Z,52.90
2017-07-29T16:21:09.895Z,53.50
2017-07-29T16:23:36.156Z,53.00
2017-07-29T16:26:02.353Z,52.90
2017-07-29T16:28:28.518Z,53.10
2017-07-29T16:30:55.806Z,52.30
2017-07-29T16:33:22.017Z,53.60
2017-07-29T16:35:49.039Z,52.70
2017-07-29T16:38:15.235Z,52.90
2017-07-29T16:40:41.453Z,52.90
2017-07-29T16:43:07.628Z,53.20
2017-07-29T16:45:33.874Z,53.30
2017-07-29T16:48:00.100Z,53.20
2017-07-29T16:50:26.661Z,53.30
2017-07-29T16:52:52.864Z,53.80
2017-07-29T16:55:19.031Z,54.10
2017-07-29T16:57:45.235Z,54.10
2017-07-29T17:00:12.170Z,55.10
2017-07-29T17:02:39.137Z,55.50
2017-07-29T17:05:05.352Z,54.80
2017-07-29T17:07:32.302Z,53.90
2017-07-29T17:09:59.255Z,54.10
2017-07-29T17:12:25.476Z,53.40
2017-07-29T17:14:52.453Z,52.90
2017-07-29T17:17:18.862Z,52.30
2017-07-29T17:19:46.779Z,53.10
2017-07-29T17:22:12.970Z,52.80
2017-07-29T17:24:39.256Z,53.50
2017-07-29T17:27:06.404Z,53.80
2017-07-29T17:29:32.679Z,55.00
2017-07-29T17:31:59.096Z,53.80
2017-07-29T17:34:26.038Z,55.00
2017-07-29T17:36:55.281Z,54.30
2017-07-29T17:39:22.263Z,54.30
2017-07-29T17:41:48.863Z,54.10
2017-07-29T17:44:15.075Z,54.70
2017-07-29T17:46:41.610Z,54.60
2017-07-29T17:49:08.015Z,54.60
2017-07-29T17:51:34.974Z,55.50
2017-07-29T17:54:02.226Z,55.20
2017-07-29T17:56:29.200Z,55.30
2017-07-29T17:58:55.442Z,55.20
2017-07-29T18:01:22.853Z,55.60
2017-07-29T18:03:49.108Z,56.60
2017-07-29T18:06:16.369Z,55.90
2017-07-29T18:08:42.594Z,57.70
2017-07-29T18:11:12.000Z,56.80
2017-07-29T18:13:38.253Z,55.50
2017-07-29T18:16:04.595Z,56.70
2017-07-29T18:18:30.814Z,57.60
2017-07-29T18:20:58.403Z,56.40
2017-07-29T18:23:24.684Z,56.10
2017-07-29T18:25:51.454Z,57.30
2017-07-29T18:28:17.657Z,57.20
2017-07-29T18:30:44.218Z,57.10
2017-07-29T18:33:10.445Z,56.60
2017-07-29T18:35:36.624Z,57.10
2017-07-29T18:38:06.728Z,56.90
2017-07-29T18:40:32.947Z,57.10
2017-07-29T18:42:59.170Z,57.60
2017-07-29T18:45:25.451Z,57.80
2017-07-29T18:47:51.640Z,57.10
2017-07-29T18:50:17.839Z,58.20
2017-07-29T18:52:44.225Z,57.60
2017-07-29T18:55:10.480Z,58.30
2017-07-29T18:57:36.861Z,58.80
2017-07-29T19:00:03.835Z,59.30
2017-07-29T19:02:30.066Z,58.90
2017-07-29T19:04:56.353Z,58.70
2017-07-29T19:07:22.555Z,58.10
2017-07-29T19:09:48.767Z,58.10
2017-07-29T19:12:15.926Z,58.20
2017-07-29T19:14:42.140Z,58.90
2017-07-29T19:17:08.290Z,58.10
2017-07-29T19:19:34.516Z,58.10
2017-07-29T19:22:00.765Z,58.50
2017-07-29T19:24:26.929Z,58.60
2017-07-29T19:26:53.870Z,59.00
2017-07-29T19:29:20.788Z,59.90
2017-07-29T19:31:47.016Z,59.90
2017-07-29T19:34:13.196Z,59.20
2017-07-29T19:36:39.398Z,59.20
2017-07-29T19:39:06.548Z,59.80
2017-07-29T19:41:32.872Z,59.60
2017-07-29T19:43:59.923Z,60.80
2017-07-29T19:46:26.111Z,60.50
2017-07-29T19:48:52.336Z,60.80
2017-07-29T19:51:18.548Z,61.40
2017-07-29T19:53:44.723Z,61.80
2017-07-29T19:56:10.951Z,61.80
2017-07-29T19:58:37.376Z,62.40
2017-07-29T20:01:04.025Z,62.10
2017-07-29T20:03:31.107Z,63.50
2017-07-29T20:05:57.334Z,63.60
2017-07-29T20:08:24.514Z,64.40
2017-07-29T20:10:50.727Z,64.30
2017-07-29T20:13:16.882Z,64.60
2017-07-29T20:15:43.095Z,66.00
2017-07-29T20:18:09.404Z,64.40
2017-07-29T20:20:36.319Z,65.00
2017-07-29T20:23:02.703Z,65.00
2017-07-29T20:25:29.264Z,65.30
2017-07-29T20:27:55.475Z,65.60
2017-07-29T20:30:21.687Z,65.60
2017-07-29T20:32:47.902Z,65.50
2017-07-29T20:35:14.907Z,66.20
2017-07-29T20:37:41.142Z,66.20
2017-07-29T20:40:07.354Z,67.30
2017-07-29T20:42:33.594Z,66.60
2017-07-29T20:44:59.774Z,65.50
2017-07-29T20:47:25.977Z,66.00
2017-07-29T20:49:52.158Z,65.60
2017-07-29T20:52:18.506Z,66.50
2017-07-29T20:54:46.160Z,66.00
2017-07-29T20:57:12.459Z,66.10
2017-07-29T20:59:38.666Z,66.20
2017-07-29T21:02:05.609Z,66.40
2017-07-29T21:04:32.664Z,66.70
2017-07-29T21:06:59.627Z,67.30
2017-07-29T21:09:25.803Z,66.90
2017-07-29T21:11:51.956Z,67.00
2017-07-29T21:14:18.178Z,67.90
2017-07-29T21:16:44.382Z,68.40
2017-07-29T21:19:10.638Z,67.30
2017-07-29T21:21:36.943Z,67.90
2017-07-29T21:24:03.098Z,68.50
2017-07-29T21:26:29.283Z,67.10
2017-07-29T21:28:55.511Z,66.70
2017-07-29T21:31:21.729Z,67.40
2017-07-29T21:33:47.926Z,68.20
2017-07-29T21:36:14.930Z,68.10
2017-07-29T21:38:41.469Z,68.40
2017-07-29T21:41:08.017Z,67.40
2017-07-29T21:43:34.227Z,68.00
2017-07-29T21:46:00.444Z,68.20
2017-07-29T21:48:27.065Z,68.00
2017-07-29T21:50:53.325Z,69.10
2017-07-29T21:53:19.517Z,69.00
2017-07-29T21:55:45.692Z,67.70
2017-07-29T21:58:11.889Z,67.60
2017-07-29T22:00:38.079Z,68.10
2017-07-29T22:03:05.006Z,69.10
2017-07-29T22:05:31.262Z,69.30
2017-07-29T22:07:57.637Z,68.60
2017-07-29T22:10:23.864Z,70.50
2017-07-29T22:12:50.055Z,69.40
2017-07-29T22:15:16.237Z,69.40
2017-07-29T22:17:42.476Z,68.80
2017-07-29T22:20:08.713Z,68.80
2017-07-29T22:22:35.737Z,69.40
2017-07-29T22:25:01.936Z,69.00
2017-07-29T22:27:28.121Z,69.80
2017-07-29T22:29:54.335Z,69.60
2017-07-29T22:32:20.578Z,69.50
2017-07-29T22:34:47.547Z,70.20
2017-07-29T22:37:14.501Z,70.20
2017-07-29T22:39:41.707Z,70.10
2017-07-29T22:42:07.964Z,71.00
2017-07-29T22:44:34.943Z,70.70
2017-07-29T22:47:01.147Z,70.10
2017-07-29T22:49:28.108Z,70.50
2017-07-29T22:51:54.669Z,69.90
2017-07-29T22:54:21.675Z,69.90
2017-07-29T22:56:48.578Z,71.10
2017-07-29T22:59:14.764Z,70.50
2017-07-29T23:01:40.999Z,71.00
2017-07-29T23:04:07.188Z,70.70
2017-07-29T23:06:33.447Z,70.90
2017-07-29T23:08:59.768Z,71.00
2017-07-29T23:11:26.347Z,71.40
2017-07-29T23:13:52.686Z,70.70
2017-07-29T23:16:19.036Z,71.10
2017-07-29T23:18:46.311Z,70.70
2017-07-29T23:21:13.270Z,71.50
2017-07-29T23:23:40.254Z,71.80
2017-07-29T23:26:06.447Z,71.20
2017-07-29T23:28:33.375Z,71.50
2017-07-29T23:30:59.619Z,71.70
2017-07-29T23:33:25.904Z,71.60
2017-07-29T23:35:52.221Z,71.20
2017-07-29T23:38:18.559Z,71.50
2017-07-29T23:40:44.784Z,72.30
2017-07-29T23:43:10.989Z,72.30
2017-07-29T23:45:37.186Z,71.50
2017-07-29T23:48:04.180Z,71.30
2017-07-29T23:50:30.979Z,71.20
2017-07-29T23:52:57.172Z,71.10
2017-07-29T23:55:23.397Z,71.30
2017-07-29T23:57:49.626Z,71.30
